CheckWX is a tool to help pilots better visualize weather data.  It is not intended as a substitute for an official pre-flight weather briefing.

09:37:20 UTC

KFTK TAF
Godman AAF Airport
Fort Knox, Kentucky, USA
TAF KFTK 200900Z 2009/2115 VRB06KT 9999 FEW220 QNH3021INS BECMG 2014/2015 21010G15KT 9999 SCT065 QNH3006INS BECMG 2020/2021 21010G18KT 9999 SCT065 BKN070 QNH3004INS BECMG 2023/2024 23009KT 9999 SCT035 BKN050 QNH3003INS BECMG 2102/2103 27010G15KT 8000 -RA BKN007 OVC020 620405 QNH2996INS BECMG 2112/2113 28009KT 8000 -SHRA BKN007 OVC020 QNH2995INS TX15/2021Z TN01/2010Z

Mar-20@
09:00 UTC

Mar-20 @ 09:00 UTC

Mar-20@
14:00 UTC

Mar-20 @ 14:00 UTC

TAF KFTK 200900Z 2009/2115 VRB06KT 9999 FEW220 QNH3021INS
Wind
  • Variable at 6 KTS
Cloud Levels
  • Few at 22,000' AGL

Mar-20@
14:00 UTC

Mar-20 @ 14:00 UTC

Mar-20@
20:00 UTC

Mar-20 @ 20:00 UTC

BECMG 2014/2015 21010G15KT 9999 SCT065 QNH3006INS

Becoming

Becoming Conditions expected by Wed, Mar 20, 2019 @ 15:00 UTC

Wind
  • 210° at 10 KTS
  • {Gusting to 15 KTS
Cloud Levels
  • Scattered at 6,500' AGL

Mar-20@
20:00 UTC

Mar-20 @ 20:00 UTC

Mar-20@
23:00 UTC

Mar-20 @ 23:00 UTC

BECMG 2020/2021 21010G18KT 9999 SCT065 BKN070 QNH3004INS

Becoming

Becoming Conditions expected by Wed, Mar 20, 2019 @ 21:00 UTC

Wind
  • 210° at 10 KTS
  • {Gusting to 18 KTS
Cloud Levels
  • Scattered at 6,500' AGL
  • Broken at 7,000' AGL

Mar-20@
23:00 UTC

Mar-20 @ 23:00 UTC

Mar-21@
02:00 UTC

Mar-21 @ 02:00 UTC

BECMG 2023/2024 23009KT 9999 SCT035 BKN050 QNH3003INS

Becoming

Becoming Conditions expected by Thu, Mar 21, 2019 @ 00:00 UTC

Wind
  • 230° at 9 KTS
Cloud Levels
  • Scattered at 3,500' AGL
  • Broken at 5,000' AGL

Mar-21@
02:00 UTC

Mar-21 @ 02:00 UTC

Mar-21@
12:00 UTC

Mar-21 @ 12:00 UTC

BECMG 2102/2103 27010G15KT 8000 -RA BKN007 OVC020 620405 QNH2996INS

Becoming

Becoming Conditions expected by Thu, Mar 21, 2019 @ 03:00 UTC

Wind
  • 270° at 10 KTS
  • {Gusting to 15 KTS
Conditions
Light Rain
Cloud Levels
  • Broken at 700' AGL
  • Overcast at 2,000' AGL
Icing
Light icing in cloud expected at 4,000' AGL extending to 9,000' AGL

Mar-21@
12:00 UTC

Mar-21 @ 12:00 UTC

Mar-21@
15:00 UTC

Mar-21 @ 15:00 UTC

BECMG 2112/2113 28009KT 8000 -SHRA BKN007 OVC020 QNH2995INS TX15/2021Z TN01/2010Z

Becoming

Becoming Conditions expected by Thu, Mar 21, 2019 @ 13:00 UTC

Wind
  • 280° at 9 KTS
Conditions
Light Rain
Cloud Levels
  • Broken at 700' AGL
  • Overcast at 2,000' AGL